sensor_id;sensor_type;location;lat;lon;timestamp;P1;durP1;ratioP1;P2;durP2;ratioP2
27939;SDS011;15275;51.716;14.324;2023-07-24T00:00:17;3.45;;;2.60;;
27939;SDS011;15275;51.716;14.324;2023-07-24T00:02:43;4.45;;;2.78;;
27939;SDS011;15275;51.716;14.324;2023-07-24T00:05:08;4.47;;;2.90;;
27939;SDS011;15275;51.716;14.324;2023-07-24T00:07:35;3.65;;;2.67;;
27939;SDS011;15275;51.716;14.324;2023-07-24T00:10:01;6.47;;;2.65;;
27939;SDS011;15275;51.716;14.324;2023-07-24T00:12:28;5.15;;;3.00;;
27939;SDS011;15275;51.716;14.324;2023-07-24T00:14:54;8.60;;;2.28;;
27939;SDS011;15275;51.716;14.324;2023-07-24T00:17:19;2.88;;;2.20;;
27939;SDS011;15275;51.716;14.324;2023-07-24T00:19:45;3.92;;;2.67;;
27939;SDS011;15275;51.716;14.324;2023-07-24T00:22:11;3.40;;;2.40;;
27939;SDS011;15275;51.716;14.324;2023-07-24T00:24:37;3.95;;;2.70;;
27939;SDS011;15275;51.716;14.324;2023-07-24T00:27:03;3.47;;;3.05;;
27939;SDS011;15275;51.716;14.324;2023-07-24T00:29:29;3.30;;;2.63;;
27939;SDS011;15275;51.716;14.324;2023-07-24T00:31:55;9.00;;;2.70;;
27939;SDS011;15275;51.716;14.324;2023-07-24T00:34:21;4.00;;;2.55;;
27939;SDS011;15275;51.716;14.324;2023-07-24T00:36:46;5.03;;;2.65;;
27939;SDS011;15275;51.716;14.324;2023-07-24T00:39:15;3.80;;;2.78;;
27939;SDS011;15275;51.716;14.324;2023-07-24T00:41:42;4.03;;;2.72;;
27939;SDS011;15275;51.716;14.324;2023-07-24T00:44:08;3.35;;;2.67;;
27939;SDS011;15275;51.716;14.324;2023-07-24T00:46:34;3.40;;;2.67;;
27939;SDS011;15275;51.716;14.324;2023-07-24T00:49:02;8.00;;;2.88;;
27939;SDS011;15275;51.716;14.324;2023-07-24T00:51:29;3.67;;;2.65;;
27939;SDS011;15275;51.716;14.324;2023-07-24T00:54:00;3.33;;;2.50;;
27939;SDS011;15275;51.716;14.324;2023-07-24T00:56:28;3.78;;;2.63;;
27939;SDS011;15275;51.716;14.324;2023-07-24T00:58:55;4.10;;;2.60;;
27939;SDS011;15275;51.716;14.324;2023-07-24T01:01:22;3.88;;;2.78;;
27939;SDS011;15275;51.716;14.324;2023-07-24T01:03:48;7.15;;;2.38;;
27939;SDS011;15275;51.716;14.324;2023-07-24T01:06:14;3.72;;;2.60;;
27939;SDS011;15275;51.716;14.324;2023-07-24T01:08:40;6.85;;;2.50;;
27939;SDS011;15275;51.716;14.324;2023-07-24T01:11:17;4.35;;;2.80;;
27939;SDS011;15275;51.716;14.324;2023-07-24T01:13:52;3.63;;;2.53;;
27939;SDS011;15275;51.716;14.324;2023-07-24T01:16:34;3.10;;;2.47;;
27939;SDS011;15275;51.716;14.324;2023-07-24T01:19:03;3.90;;;2.58;;
27939;SDS011;15275;51.716;14.324;2023-07-24T01:22:36;6.47;;;2.92;;
27939;SDS011;15275;51.716;14.324;2023-07-24T01:27:54;6.97;;;2.78;;
27939;SDS011;15275;51.716;14.324;2023-07-24T01:30:20;4.57;;;2.55;;
27939;SDS011;15275;51.716;14.324;2023-07-24T01:32:46;5.65;;;2.92;;
27939;SDS011;15275;51.716;14.324;2023-07-24T01:35:13;3.58;;;2.50;;
27939;SDS011;15275;51.716;14.324;2023-07-24T01:37:39;4.20;;;2.70;;
27939;SDS011;15275;51.716;14.324;2023-07-24T01:40:10;4.05;;;2.80;;
27939;SDS011;15275;51.716;14.324;2023-07-24T01:42:37;5.05;;;2.88;;
27939;SDS011;15275;51.716;14.324;2023-07-24T01:45:04;5.93;;;2.80;;
27939;SDS011;15275;51.716;14.324;2023-07-24T01:47:30;4.60;;;2.78;;
27939;SDS011;15275;51.716;14.324;2023-07-24T01:49:56;6.47;;;2.90;;
27939;SDS011;15275;51.716;14.324;2023-07-24T01:52:22;4.85;;;3.13;;
27939;SDS011;15275;51.716;14.324;2023-07-24T01:54:48;3.50;;;2.58;;
27939;SDS011;15275;51.716;14.324;2023-07-24T01:57:13;4.53;;;2.95;;
27939;SDS011;15275;51.716;14.324;2023-07-24T01:59:39;4.13;;;2.90;;
27939;SDS011;15275;51.716;14.324;2023-07-24T02:02:05;5.20;;;2.83;;
27939;SDS011;15275;51.716;14.324;2023-07-24T02:04:31;8.80;;;2.83;;
27939;SDS011;15275;51.716;14.324;2023-07-24T02:06:57;6.35;;;3.00;;
27939;SDS011;15275;51.716;14.324;2023-07-24T02:09:23;4.78;;;2.38;;
27939;SDS011;15275;51.716;14.324;2023-07-24T02:11:48;3.70;;;2.80;;
27939;SDS011;15275;51.716;14.324;2023-07-24T02:14:17;3.33;;;2.70;;
27939;SDS011;15275;51.716;14.324;2023-07-24T02:16:43;3.50;;;2.78;;
27939;SDS011;15275;51.716;14.324;2023-07-24T02:19:09;5.05;;;2.75;;
27939;SDS011;15275;51.716;14.324;2023-07-24T02:21:35;4.43;;;2.80;;
27939;SDS011;15275;51.716;14.324;2023-07-24T02:24:01;5.05;;;2.95;;
27939;SDS011;15275;51.716;14.324;2023-07-24T02:26:27;4.40;;;2.95;;
27939;SDS011;15275;51.716;14.324;2023-07-24T02:28:53;3.38;;;2.50;;
27939;SDS011;15275;51.716;14.324;2023-07-24T02:31:19;3.67;;;2.50;;
27939;SDS011;15275;51.716;14.324;2023-07-24T02:33:45;3.80;;;2.78;;
27939;SDS011;15275;51.716;14.324;2023-07-24T02:36:11;10.60;;;3.05;;
27939;SDS011;15275;51.716;14.324;2023-07-24T02:38:37;3.35;;;2.70;;
27939;SDS011;15275;51.716;14.324;2023-07-24T02:41:03;3.70;;;3.00;;
27939;SDS011;15275;51.716;14.324;2023-07-24T02:43:29;3.40;;;2.63;;
27939;SDS011;15275;51.716;14.324;2023-07-24T02:45:54;3.97;;;2.67;;
27939;SDS011;15275;51.716;14.324;2023-07-24T02:48:26;3.80;;;2.92;;
27939;SDS011;15275;51.716;14.324;2023-07-24T02:50:51;3.90;;;2.92;;
27939;SDS011;15275;51.716;14.324;2023-07-24T02:53:17;3.45;;;2.67;;
27939;SDS011;15275;51.716;14.324;2023-07-24T02:55:43;4.18;;;2.92;;
27939;SDS011;15275;51.716;14.324;2023-07-24T02:58:10;4.47;;;3.00;;
27939;SDS011;15275;51.716;14.324;2023-07-24T03:00:37;7.72;;;3.42;;
27939;SDS011;15275;51.716;14.324;2023-07-24T03:03:04;4.50;;;2.38;;
27939;SDS011;15275;51.716;14.324;2023-07-24T03:05:30;4.72;;;3.08;;
27939;SDS011;15275;51.716;14.324;2023-07-24T03:07:56;5.75;;;3.28;;
27939;SDS011;15275;51.716;14.324;2023-07-24T03:10:22;4.57;;;2.72;;
27939;SDS011;15275;51.716;14.324;2023-07-24T03:12:48;4.22;;;3.03;;
27939;SDS011;15275;51.716;14.324;2023-07-24T03:15:14;4.70;;;3.20;;
27939;SDS011;15275;51.716;14.324;2023-07-24T03:17:40;7.97;;;2.45;;
27939;SDS011;15275;51.716;14.324;2023-07-24T03:20:14;4.70;;;2.85;;
27939;SDS011;15275;51.716;14.324;2023-07-24T03:22:42;7.55;;;3.30;;
27939;SDS011;15275;51.716;14.324;2023-07-24T03:25:09;4.88;;;3.03;;
27939;SDS011;15275;51.716;14.324;2023-07-24T03:27:35;6.35;;;3.03;;
27939;SDS011;15275;51.716;14.324;2023-07-24T03:30:01;4.07;;;2.75;;
27939;SDS011;15275;51.716;14.324;2023-07-24T03:32:28;5.00;;;2.90;;
27939;SDS011;15275;51.716;14.324;2023-07-24T03:34:54;5.30;;;3.42;;
27939;SDS011;15275;51.716;14.324;2023-07-24T03:37:20;3.22;;;2.70;;
27939;SDS011;15275;51.716;14.324;2023-07-24T03:39:46;5.10;;;2.83;;
27939;SDS011;15275;51.716;14.324;2023-07-24T03:42:12;3.63;;;3.08;;
27939;SDS011;15275;51.716;14.324;2023-07-24T03:44:50;3.13;;;2.60;;
27939;SDS011;15275;51.716;14.324;2023-07-24T03:47:16;4.40;;;3.25;;
27939;SDS011;15275;51.716;14.324;2023-07-24T03:49:41;5.05;;;3.15;;
27939;SDS011;15275;51.716;14.324;2023-07-24T03:52:07;6.13;;;2.95;;
27939;SDS011;15275;51.716;14.324;2023-07-24T03:54:33;4.50;;;3.65;;
27939;SDS011;15275;51.716;14.324;2023-07-24T03:56:59;4.53;;;3.30;;
27939;SDS011;15275;51.716;14.324;2023-07-24T03:59:25;8.13;;;5.10;;
27939;SDS011;15275;51.716;14.324;2023-07-24T04:01:51;15.23;;;9.85;;
27939;SDS011;15275;51.716;14.324;2023-07-24T04:04:16;17.05;;;9.75;;
27939;SDS011;15275;51.716;14.324;2023-07-24T04:06:42;14.70;;;9.07;;
27939;SDS011;15275;51.716;14.324;2023-07-24T04:09:08;17.00;;;10.40;;
27939;SDS011;15275;51.716;14.324;2023-07-24T04:11:35;11.23;;;6.18;;
27939;SDS011;15275;51.716;14.324;2023-07-24T04:14:03;8.98;;;4.15;;
27939;SDS011;15275;51.716;14.324;2023-07-24T04:16:29;9.60;;;3.90;;
27939;SDS011;15275;51.716;14.324;2023-07-24T04:18:54;7.85;;;3.28;;
27939;SDS011;15275;51.716;14.324;2023-07-24T04:21:20;8.00;;;3.75;;
27939;SDS011;15275;51.716;14.324;2023-07-24T04:23:47;3.65;;;2.95;;
27939;SDS011;15275;51.716;14.324;2023-07-24T04:26:13;4.68;;;3.13;;
27939;SDS011;15275;51.716;14.324;2023-07-24T04:28:39;4.63;;;3.45;;
27939;SDS011;15275;51.716;14.324;2023-07-24T04:31:05;4.15;;;3.30;;
27939;SDS011;15275;51.716;14.324;2023-07-24T04:33:30;4.05;;;3.13;;
27939;SDS011;15275;51.716;14.324;2023-07-24T04:35:56;3.67;;;3.35;;
27939;SDS011;15275;51.716;14.324;2023-07-24T04:38:22;12.27;;;5.40;;
27939;SDS011;15275;51.716;14.324;2023-07-24T04:40:48;6.35;;;5.47;;
27939;SDS011;15275;51.716;14.324;2023-07-24T04:43:14;6.55;;;4.50;;
27939;SDS011;15275;51.716;14.324;2023-07-24T04:45:39;7.15;;;3.90;;
27939;SDS011;15275;51.716;14.324;2023-07-24T04:48:05;8.32;;;3.58;;
27939;SDS011;15275;51.716;14.324;2023-07-24T04:50:31;4.78;;;3.58;;
27939;SDS011;15275;51.716;14.324;2023-07-24T04:52:58;4.32;;;3.22;;
27939;SDS011;15275;51.716;14.324;2023-07-24T04:55:24;7.68;;;3.33;;
27939;SDS011;15275;51.716;14.324;2023-07-24T04:57:49;4.05;;;3.25;;
27939;SDS011;15275;51.716;14.324;2023-07-24T05:00:15;6.05;;;3.33;;
27939;SDS011;15275;51.716;14.324;2023-07-24T05:02:41;6.35;;;3.30;;
27939;SDS011;15275;51.716;14.324;2023-07-24T05:05:07;4.20;;;3.30;;
27939;SDS011;15275;51.716;14.324;2023-07-24T05:07:34;10.13;;;4.00;;
27939;SDS011;15275;51.716;14.324;2023-07-24T05:10:00;9.98;;;3.35;;
27939;SDS011;15275;51.716;14.324;2023-07-24T05:12:25;4.97;;;3.50;;
27939;SDS011;15275;51.716;14.324;2023-07-24T05:14:51;4.78;;;3.15;;
27939;SDS011;15275;51.716;14.324;2023-07-24T05:17:17;5.88;;;3.35;;
27939;SDS011;15275;51.716;14.324;2023-07-24T05:19:43;5.78;;;3.38;;
27939;SDS011;15275;51.716;14.324;2023-07-24T05:22:09;4.93;;;3.40;;
27939;SDS011;15275;51.716;14.324;2023-07-24T05:24:36;4.60;;;3.20;;
27939;SDS011;15275;51.716;14.324;2023-07-24T05:27:02;5.55;;;3.60;;
27939;SDS011;15275;51.716;14.324;2023-07-24T05:29:29;5.95;;;3.15;;
27939;SDS011;15275;51.716;14.324;2023-07-24T05:31:56;4.70;;;3.47;;
27939;SDS011;15275;51.716;14.324;2023-07-24T05:34:22;4.55;;;3.50;;
27939;SDS011;15275;51.716;14.324;2023-07-24T05:36:48;4.55;;;3.22;;
27939;SDS011;15275;51.716;14.324;2023-07-24T05:39:14;4.95;;;3.65;;
27939;SDS011;15275;51.716;14.324;2023-07-24T05:41:40;5.55;;;3.70;;
27939;SDS011;15275;51.716;14.324;2023-07-24T05:44:05;4.05;;;3.35;;
27939;SDS011;15275;51.716;14.324;2023-07-24T05:46:31;4.28;;;3.20;;
27939;SDS011;15275;51.716;14.324;2023-07-24T05:48:57;10.18;;;3.88;;
27939;SDS011;15275;51.716;14.324;2023-07-24T05:51:25;8.52;;;3.63;;
27939;SDS011;15275;51.716;14.324;2023-07-24T05:53:51;4.40;;;3.35;;
27939;SDS011;15275;51.716;14.324;2023-07-24T05:56:16;4.07;;;3.45;;
27939;SDS011;15275;51.716;14.324;2023-07-24T05:58:42;5.97;;;3.50;;
27939;SDS011;15275;51.716;14.324;2023-07-24T06:01:08;3.80;;;3.08;;
27939;SDS011;15275;51.716;14.324;2023-07-24T06:03:35;5.15;;;3.42;;
27939;SDS011;15275;51.716;14.324;2023-07-24T06:06:01;5.00;;;3.58;;
27939;SDS011;15275;51.716;14.324;2023-07-24T06:08:27;4.30;;;3.50;;
27939;SDS011;15275;51.716;14.324;2023-07-24T06:10:53;5.30;;;3.88;;
27939;SDS011;15275;51.716;14.324;2023-07-24T06:13:19;6.13;;;3.85;;
27939;SDS011;15275;51.716;14.324;2023-07-24T06:15:49;4.95;;;3.50;;
27939;SDS011;15275;51.716;14.324;2023-07-24T06:18:17;6.97;;;3.92;;
27939;SDS011;15275;51.716;14.324;2023-07-24T06:20:43;5.72;;;3.60;;
27939;SDS011;15275;51.716;14.324;2023-07-24T06:23:09;6.95;;;3.55;;
27939;SDS011;15275;51.716;14.324;2023-07-24T06:25:34;5.00;;;3.78;;
27939;SDS011;15275;51.716;14.324;2023-07-24T06:28:01;4.15;;;3.58;;
27939;SDS011;15275;51.716;14.324;2023-07-24T06:30:27;4.97;;;3.30;;
27939;SDS011;15275;51.716;14.324;2023-07-24T06:32:52;4.45;;;3.67;;
27939;SDS011;15275;51.716;14.324;2023-07-24T06:35:18;6.80;;;3.65;;
27939;SDS011;15275;51.716;14.324;2023-07-24T06:37:44;4.97;;;3.47;;
27939;SDS011;15275;51.716;14.324;2023-07-24T06:40:10;4.13;;;3.25;;
27939;SDS011;15275;51.716;14.324;2023-07-24T06:42:36;4.15;;;3.15;;
27939;SDS011;15275;51.716;14.324;2023-07-24T06:45:02;4.13;;;3.38;;
27939;SDS011;15275;51.716;14.324;2023-07-24T06:47:29;5.28;;;3.40;;
27939;SDS011;15275;51.716;14.324;2023-07-24T06:49:54;7.07;;;3.70;;
27939;SDS011;15275;51.716;14.324;2023-07-24T06:52:20;4.63;;;3.22;;
27939;SDS011;15275;51.716;14.324;2023-07-24T06:54:46;4.57;;;3.30;;
27939;SDS011;15275;51.716;14.324;2023-07-24T06:57:12;4.30;;;3.38;;
27939;SDS011;15275;51.716;14.324;2023-07-24T06:59:39;6.28;;;3.83;;
27939;SDS011;15275;51.716;14.324;2023-07-24T07:02:05;3.78;;;3.28;;
27939;SDS011;15275;51.716;14.324;2023-07-24T07:04:30;6.30;;;3.58;;
27939;SDS011;15275;51.716;14.324;2023-07-24T07:06:56;4.43;;;3.25;;
27939;SDS011;15275;51.716;14.324;2023-07-24T07:09:22;10.70;;;3.33;;
27939;SDS011;15275;51.716;14.324;2023-07-24T07:11:48;3.80;;;3.10;;
27939;SDS011;15275;51.716;14.324;2023-07-24T07:14:14;3.83;;;2.92;;
27939;SDS011;15275;51.716;14.324;2023-07-24T07:16:39;4.35;;;2.90;;
27939;SDS011;15275;51.716;14.324;2023-07-24T07:19:06;3.70;;;2.40;;
27939;SDS011;15275;51.716;14.324;2023-07-24T07:21:34;4.05;;;2.78;;
27939;SDS011;15275;51.716;14.324;2023-07-24T07:24:00;7.47;;;2.83;;
27939;SDS011;15275;51.716;14.324;2023-07-24T07:26:25;5.50;;;3.15;;
27939;SDS011;15275;51.716;14.324;2023-07-24T07:28:51;3.13;;;2.78;;
27939;SDS011;15275;51.716;14.324;2023-07-24T07:31:17;6.78;;;2.95;;
27939;SDS011;15275;51.716;14.324;2023-07-24T07:33:43;3.20;;;2.90;;
27939;SDS011;15275;51.716;14.324;2023-07-24T07:36:09;4.10;;;2.78;;
27939;SDS011;15275;51.716;14.324;2023-07-24T07:38:35;3.28;;;2.78;;
27939;SDS011;15275;51.716;14.324;2023-07-24T07:41:05;3.72;;;2.80;;
27939;SDS011;15275;51.716;14.324;2023-07-24T07:43:31;3.65;;;2.83;;
27939;SDS011;15275;51.716;14.324;2023-07-24T07:45:57;3.53;;;2.90;;
27939;SDS011;15275;51.716;14.324;2023-07-24T07:48:24;4.32;;;3.33;;
27939;SDS011;15275;51.716;14.324;2023-07-24T07:50:53;4.20;;;3.10;;
27939;SDS011;15275;51.716;14.324;2023-07-24T07:53:19;4.10;;;3.30;;
27939;SDS011;15275;51.716;14.324;2023-07-24T07:55:45;3.40;;;2.90;;
27939;SDS011;15275;51.716;14.324;2023-07-24T07:58:11;3.17;;;2.67;;
27939;SDS011;15275;51.716;14.324;2023-07-24T08:00:37;3.65;;;2.60;;
27939;SDS011;15275;51.716;14.324;2023-07-24T08:03:04;3.58;;;2.75;;
27939;SDS011;15275;51.716;14.324;2023-07-24T08:05:30;4.78;;;2.75;;
27939;SDS011;15275;51.716;14.324;2023-07-24T08:07:57;4.07;;;3.05;;
27939;SDS011;15275;51.716;14.324;2023-07-24T08:10:23;3.83;;;2.75;;
27939;SDS011;15275;51.716;14.324;2023-07-24T08:12:49;4.63;;;3.30;;
27939;SDS011;15275;51.716;14.324;2023-07-24T08:15:15;3.90;;;3.05;;
27939;SDS011;15275;51.716;14.324;2023-07-24T08:17:40;3.97;;;3.15;;
27939;SDS011;15275;51.716;14.324;2023-07-24T08:20:06;3.88;;;3.22;;
27939;SDS011;15275;51.716;14.324;2023-07-24T08:22:33;4.68;;;3.30;;
27939;SDS011;15275;51.716;14.324;2023-07-24T08:24:59;3.88;;;3.08;;
27939;SDS011;15275;51.716;14.324;2023-07-24T08:27:24;10.70;;;3.38;;
27939;SDS011;15275;51.716;14.324;2023-07-24T08:29:51;3.97;;;3.17;;
27939;SDS011;15275;51.716;14.324;2023-07-24T08:32:18;11.30;;;4.32;;
27939;SDS011;15275;51.716;14.324;2023-07-24T08:34:44;4.82;;;3.58;;
27939;SDS011;15275;51.716;14.324;2023-07-24T08:37:11;4.30;;;3.33;;
27939;SDS011;15275;51.716;14.324;2023-07-24T08:39:37;6.78;;;3.15;;
27939;SDS011;15275;51.716;14.324;2023-07-24T08:42:10;8.05;;;3.30;;
27939;SDS011;15275;51.716;14.324;2023-07-24T08:44:37;4.68;;;3.40;;
27939;SDS011;15275;51.716;14.324;2023-07-24T08:47:04;3.80;;;3.08;;
27939;SDS011;15275;51.716;14.324;2023-07-24T08:49:32;4.47;;;3.28;;
27939;SDS011;15275;51.716;14.324;2023-07-24T08:51:58;5.60;;;3.65;;
27939;SDS011;15275;51.716;14.324;2023-07-24T08:54:26;4.85;;;3.65;;
27939;SDS011;15275;51.716;14.324;2023-07-24T08:56:52;4.15;;;3.33;;
27939;SDS011;15275;51.716;14.324;2023-07-24T08:59:18;4.65;;;3.13;;
27939;SDS011;15275;51.716;14.324;2023-07-24T09:01:44;4.68;;;3.50;;
27939;SDS011;15275;51.716;14.324;2023-07-24T09:04:10;4.72;;;3.55;;
27939;SDS011;15275;51.716;14.324;2023-07-24T09:06:37;5.90;;;3.55;;
27939;SDS011;15275;51.716;14.324;2023-07-24T09:09:11;3.95;;;3.40;;
27939;SDS011;15275;51.716;14.324;2023-07-24T09:11:49;5.72;;;3.28;;
27939;SDS011;15275;51.716;14.324;2023-07-24T09:14:24;4.40;;;3.75;;
27939;SDS011;15275;51.716;14.324;2023-07-24T09:17:04;4.47;;;3.47;;
27939;SDS011;15275;51.716;14.324;2023-07-24T09:19:34;3.45;;;3.03;;
27939;SDS011;15275;51.716;14.324;2023-07-24T09:22:12;8.40;;;3.53;;
27939;SDS011;15275;51.716;14.324;2023-07-24T09:24:50;4.85;;;3.25;;
27939;SDS011;15275;51.716;14.324;2023-07-24T09:27:17;5.57;;;3.92;;
27939;SDS011;15275;51.716;14.324;2023-07-24T09:29:43;3.67;;;3.17;;
27939;SDS011;15275;51.716;14.324;2023-07-24T09:32:24;3.83;;;3.20;;
27939;SDS011;15275;51.716;14.324;2023-07-24T09:34:51;3.95;;;3.00;;
27939;SDS011;15275;51.716;14.324;2023-07-24T09:37:37;4.88;;;3.33;;
27939;SDS011;15275;51.716;14.324;2023-07-24T09:45:00;6.57;;;3.22;;
27939;SDS011;15275;51.716;14.324;2023-07-24T09:47:28;9.43;;;3.80;;
27939;SDS011;15275;51.716;14.324;2023-07-24T09:49:54;4.20;;;3.20;;
27939;SDS011;15275;51.716;14.324;2023-07-24T09:52:21;5.20;;;3.85;;
27939;SDS011;15275;51.716;14.324;2023-07-24T09:54:57;5.07;;;3.45;;
27939;SDS011;15275;51.716;14.324;2023-07-24T09:57:28;4.90;;;3.45;;
27939;SDS011;15275;51.716;14.324;2023-07-24T09:59:54;4.90;;;3.55;;
27939;SDS011;15275;51.716;14.324;2023-07-24T10:02:22;4.25;;;3.45;;
27939;SDS011;15275;51.716;14.324;2023-07-24T10:04:49;6.90;;;3.13;;
27939;SDS011;15275;51.716;14.324;2023-07-24T10:07:15;4.95;;;3.80;;
27939;SDS011;15275;51.716;14.324;2023-07-24T10:09:46;4.68;;;3.53;;
27939;SDS011;15275;51.716;14.324;2023-07-24T10:12:14;6.75;;;3.78;;
27939;SDS011;15275;51.716;14.324;2023-07-24T10:14:45;4.53;;;3.70;;
27939;SDS011;15275;51.716;14.324;2023-07-24T10:17:12;4.63;;;3.67;;
27939;SDS011;15275;51.716;14.324;2023-07-24T10:19:42;4.85;;;3.63;;
27939;SDS011;15275;51.716;14.324;2023-07-24T10:22:17;4.78;;;3.85;;
27939;SDS011;15275;51.716;14.324;2023-07-24T10:24:44;6.25;;;3.88;;
27939;SDS011;15275;51.716;14.324;2023-07-24T10:27:11;5.75;;;4.03;;
27939;SDS011;15275;51.716;14.324;2023-07-24T10:29:37;6.78;;;3.88;;
27939;SDS011;15275;51.716;14.324;2023-07-24T10:32:04;4.35;;;3.75;;
27939;SDS011;15275;51.716;14.324;2023-07-24T10:34:42;5.43;;;3.88;;
27939;SDS011;15275;51.716;14.324;2023-07-24T10:37:08;7.28;;;4.00;;
27939;SDS011;15275;51.716;14.324;2023-07-24T10:39:38;4.88;;;3.83;;
27939;SDS011;15275;51.716;14.324;2023-07-24T10:42:09;4.78;;;3.95;;
27939;SDS011;15275;51.716;14.324;2023-07-24T10:44:36;4.28;;;3.80;;
27939;SDS011;15275;51.716;14.324;2023-07-24T10:47:02;6.32;;;4.63;;
27939;SDS011;15275;51.716;14.324;2023-07-24T10:49:28;5.57;;;4.32;;
27939;SDS011;15275;51.716;14.324;2023-07-24T10:51:58;5.40;;;4.38;;
27939;SDS011;15275;51.716;14.324;2023-07-24T10:54:24;5.18;;;4.68;;
27939;SDS011;15275;51.716;14.324;2023-07-24T10:56:57;5.63;;;4.82;;
27939;SDS011;15275;51.716;14.324;2023-07-24T10:59:38;7.60;;;5.13;;
27939;SDS011;15275;51.716;14.324;2023-07-24T11:02:05;10.55;;;4.97;;
27939;SDS011;15275;51.716;14.324;2023-07-24T11:04:33;7.88;;;5.30;;
27939;SDS011;15275;51.716;14.324;2023-07-24T11:06:59;6.63;;;5.07;;
27939;SDS011;15275;51.716;14.324;2023-07-24T11:09:35;7.40;;;5.65;;
27939;SDS011;15275;51.716;14.324;2023-07-24T11:14:50;7.53;;;4.90;;
27939;SDS011;15275;51.716;14.324;2023-07-24T11:17:19;7.00;;;5.60;;
27939;SDS011;15275;51.716;14.324;2023-07-24T11:19:45;10.48;;;5.30;;
27939;SDS011;15275;51.716;14.324;2023-07-24T11:22:11;9.60;;;6.07;;
27939;SDS011;15275;51.716;14.324;2023-07-24T11:24:41;7.82;;;5.85;;
27939;SDS011;15275;51.716;14.324;2023-07-24T11:27:16;8.05;;;6.10;;
27939;SDS011;15275;51.716;14.324;2023-07-24T11:29:47;7.00;;;5.60;;
27939;SDS011;15275;51.716;14.324;2023-07-24T11:32:20;6.82;;;5.50;;
27939;SDS011;15275;51.716;14.324;2023-07-24T11:34:46;7.72;;;6.15;;
27939;SDS011;15275;51.716;14.324;2023-07-24T11:37:16;7.35;;;5.53;;
27939;SDS011;15275;51.716;14.324;2023-07-24T11:39:43;6.85;;;5.43;;
27939;SDS011;15275;51.716;14.324;2023-07-24T11:42:29;10.82;;;5.40;;
27939;SDS011;15275;51.716;14.324;2023-07-24T11:44:55;7.32;;;5.82;;
27939;SDS011;15275;51.716;14.324;2023-07-24T11:47:26;8.88;;;5.55;;
27939;SDS011;15275;51.716;14.324;2023-07-24T11:50:01;9.00;;;5.85;;
27939;SDS011;15275;51.716;14.324;2023-07-24T11:52:37;8.27;;;5.70;;
27939;SDS011;15275;51.716;14.324;2023-07-24T11:55:15;6.20;;;5.03;;
27939;SDS011;15275;51.716;14.324;2023-07-24T11:57:55;7.82;;;5.97;;
27939;SDS011;15275;51.716;14.324;2023-07-24T12:00:23;6.53;;;5.75;;
27939;SDS011;15275;51.716;14.324;2023-07-24T12:02:50;8.60;;;5.85;;
27939;SDS011;15275;51.716;14.324;2023-07-24T12:05:16;9.15;;;5.88;;
27939;SDS011;15275;51.716;14.324;2023-07-24T12:07:42;7.22;;;6.03;;
27939;SDS011;15275;51.716;14.324;2023-07-24T12:10:10;7.78;;;6.45;;
27939;SDS011;15275;51.716;14.324;2023-07-24T12:12:38;8.35;;;5.90;;
27939;SDS011;15275;51.716;14.324;2023-07-24T12:15:08;8.38;;;6.43;;
27939;SDS011;15275;51.716;14.324;2023-07-24T12:17:35;7.60;;;6.13;;
27939;SDS011;15275;51.716;14.324;2023-07-24T12:20:01;8.73;;;6.07;;
27939;SDS011;15275;51.716;14.324;2023-07-24T12:22:29;7.57;;;6.05;;
27939;SDS011;15275;51.716;14.324;2023-07-24T12:24:55;8.10;;;6.68;;
27939;SDS011;15275;51.716;14.324;2023-07-24T12:27:21;9.50;;;6.85;;
27939;SDS011;15275;51.716;14.324;2023-07-24T12:29:47;10.18;;;6.43;;
27939;SDS011;15275;51.716;14.324;2023-07-24T12:32:13;8.98;;;6.68;;
27939;SDS011;15275;51.716;14.324;2023-07-24T12:34:39;7.72;;;6.30;;
27939;SDS011;15275;51.716;14.324;2023-07-24T12:37:04;9.38;;;6.93;;
27939;SDS011;15275;51.716;14.324;2023-07-24T12:39:30;9.93;;;6.40;;
27939;SDS011;15275;51.716;14.324;2023-07-24T12:41:56;11.55;;;6.60;;
27939;SDS011;15275;51.716;14.324;2023-07-24T12:44:22;9.30;;;5.65;;
27939;SDS011;15275;51.716;14.324;2023-07-24T12:46:48;9.52;;;6.00;;
27939;SDS011;15275;51.716;14.324;2023-07-24T12:49:14;9.63;;;6.15;;
27939;SDS011;15275;51.716;14.324;2023-07-24T12:51:40;11.85;;;6.18;;
27939;SDS011;15275;51.716;14.324;2023-07-24T12:54:05;8.07;;;5.65;;
27939;SDS011;15275;51.716;14.324;2023-07-24T12:56:31;7.28;;;5.57;;
27939;SDS011;15275;51.716;14.324;2023-07-24T12:58:57;8.82;;;5.85;;
27939;SDS011;15275;51.716;14.324;2023-07-24T13:01:23;8.18;;;6.07;;
27939;SDS011;15275;51.716;14.324;2023-07-24T13:03:49;7.35;;;6.10;;
27939;SDS011;15275;51.716;14.324;2023-07-24T13:06:15;8.48;;;5.85;;
27939;SDS011;15275;51.716;14.324;2023-07-24T13:08:41;13.20;;;6.63;;
27939;SDS011;15275;51.716;14.324;2023-07-24T13:11:07;6.50;;;5.57;;
27939;SDS011;15275;51.716;14.324;2023-07-24T13:13:33;9.77;;;6.40;;
27939;SDS011;15275;51.716;14.324;2023-07-24T13:15:58;7.07;;;6.03;;
27939;SDS011;15275;51.716;14.324;2023-07-24T13:18:24;10.10;;;6.53;;
27939;SDS011;15275;51.716;14.324;2023-07-24T13:20:50;8.27;;;6.53;;
27939;SDS011;15275;51.716;14.324;2023-07-24T13:23:16;8.30;;;6.03;;
27939;SDS011;15275;51.716;14.324;2023-07-24T13:25:42;9.27;;;6.03;;
27939;SDS011;15275;51.716;14.324;2023-07-24T13:28:08;7.18;;;6.40;;
27939;SDS011;15275;51.716;14.324;2023-07-24T13:30:33;9.35;;;6.13;;
27939;SDS011;15275;51.716;14.324;2023-07-24T13:32:59;11.48;;;6.72;;
27939;SDS011;15275;51.716;14.324;2023-07-24T13:35:25;8.68;;;6.63;;
27939;SDS011;15275;51.716;14.324;2023-07-24T13:37:51;7.53;;;5.78;;
27939;SDS011;15275;51.716;14.324;2023-07-24T13:40:16;8.65;;;6.18;;
27939;SDS011;15275;51.716;14.324;2023-07-24T13:42:42;8.40;;;6.28;;
27939;SDS011;15275;51.716;14.324;2023-07-24T13:45:08;7.88;;;5.90;;
27939;SDS011;15275;51.716;14.324;2023-07-24T13:47:34;7.50;;;6.25;;
27939;SDS011;15275;51.716;14.324;2023-07-24T13:50:00;7.75;;;6.43;;
27939;SDS011;15275;51.716;14.324;2023-07-24T13:52:28;8.55;;;6.60;;
27939;SDS011;15275;51.716;14.324;2023-07-24T13:54:55;8.82;;;6.65;;
27939;SDS011;15275;51.716;14.324;2023-07-24T13:57:21;12.63;;;6.85;;
27939;SDS011;15275;51.716;14.324;2023-07-24T13:59:47;10.00;;;6.68;;
27939;SDS011;15275;51.716;14.324;2023-07-24T14:02:12;11.82;;;7.22;;
27939;SDS011;15275;51.716;14.324;2023-07-24T14:04:38;9.23;;;7.18;;
27939;SDS011;15275;51.716;14.324;2023-07-24T14:07:04;10.48;;;7.07;;
27939;SDS011;15275;51.716;14.324;2023-07-24T14:09:31;8.93;;;6.88;;
27939;SDS011;15275;51.716;14.324;2023-07-24T14:11:58;9.57;;;6.75;;
27939;SDS011;15275;51.716;14.324;2023-07-24T14:14:24;11.82;;;6.55;;
27939;SDS011;15275;51.716;14.324;2023-07-24T14:16:51;13.85;;;6.03;;
27939;SDS011;15275;51.716;14.324;2023-07-24T14:19:17;10.13;;;6.35;;
27939;SDS011;15275;51.716;14.324;2023-07-24T14:21:44;13.32;;;7.60;;
27939;SDS011;15275;51.716;14.324;2023-07-24T14:24:10;18.63;;;7.68;;
27939;SDS011;15275;51.716;14.324;2023-07-24T14:26:36;17.63;;;7.63;;
27939;SDS011;15275;51.716;14.324;2023-07-24T14:29:02;15.80;;;7.78;;
27939;SDS011;15275;51.716;14.324;2023-07-24T14:31:29;14.93;;;6.78;;
27939;SDS011;15275;51.716;14.324;2023-07-24T14:33:55;14.75;;;7.07;;
27939;SDS011;15275;51.716;14.324;2023-07-24T14:36:21;10.48;;;6.75;;
27939;SDS011;15275;51.716;14.324;2023-07-24T14:38:47;12.57;;;7.78;;
27939;SDS011;15275;51.716;14.324;2023-07-24T14:41:12;10.88;;;6.40;;
27939;SDS011;15275;51.716;14.324;2023-07-24T14:43:40;10.13;;;6.60;;